메인 페이지
METAR-TAF:

METAR-TAF

공항 :

건지 섬,

위도: 49-26N, 경도: 002-36W, 고도: 102m

현재 날씨관측

예보는 1 시간 32분 전, 01:50시(UTC)에 발표되었습니다.
북서4kt
온도 12°C
습도 100%
기압 1016 hPa
시정 10km 이상
고도 900ft 상공 구름 조금

METAR: EGJB 130150Z 31004KT 9999 FEW009 12/12 Q1016

시각: 04:22 (03:22 UTC)

예보

예보는 1 시간 25분 전, 01:57시(UTC)에 발표되었습니다.
예보 대상 시간: 13일 03시부터 13일 12시까지 (UTC)
북서4kt
시정 10km 이상
고도 800ft 상공 구름 조금
확률 30% :
일시적
13일 03시부터 13일 10시까지 (UTC)
시정: 7000m
고도 800ft 상공 구름 보통
고도 1200ft 상공 구름 많음, 타워링 적운.
소나기,

TAF: EGJB 130157Z 1303/1312 31004KT 9999 FEW008 PROB30 TEMPO 1303/1310 7000 SHRA SCT008 BKN012TCU

4,000개 이상의 공항 관측 자료 및 예보 (METAR 및 TAF 보고).

지도상에서 검색 가능한 기상관측소가 노란 점과 빨간 점으로 표시되어 있습니다.

기상관측소 명을 보려면 표시 위로 마우스를 이동하세요.

날씨 관측과 예보를 보려면 클릭하세요.

지도 변경 : 확대하려면 엑스 표시가 있는 녹색 버튼, 축소하려면 빼기 표시가 있는 녹색 버튼, 다음 페이지의 지도를 보려면 녹색 화살표를 클릭하세요.


METAR-TAF: